Time;durP1;ratioP1;P1;durP2;ratioP2;P2;SDS_P1;SDS_P2;PMS_P1;PMS_P2;Temp;Humidity;BMP_temperature;BMP_pressure;BME280_temperature;BME280_humidity;BME280_pressure;Samples;Min_cycle;Max_cycle;Signal;HPM_P1;HPM_P2
2023/12/31 00:00:23;;;;;;;;;;;;;;;8.78;97.20;100386.97;5049157;28;19929;-78
2023/12/31 00:02:49;;;;;;;;;;;;;;;8.74;96.72;100387.88;5048461;28;19928;-79
2023/12/31 00:05:14;;;;;;;;;;;;;;;8.67;97.07;100366.16;5048586;28;20757;-79
2023/12/31 00:07:40;;;;;;;;;;;;;;;8.61;97.68;100380.16;5064937;28;19921;-78
2023/12/31 00:10:05;;;;;;;;;;;;;;;8.72;96.34;100368.72;5045558;28;19925;-75
2023/12/31 00:12:31;;;;;;;;;;;;;;;8.79;95.37;100365.16;5044638;28;19963;-77
2023/12/31 00:14:56;;;;;;;;;;;;;;;8.86;94.82;100350.28;5063822;28;19932;-78
2023/12/31 00:17:22;;;;;;;;;;;;;;;8.92;94.30;100351.06;5041526;28;19928;-79
2023/12/31 00:19:48;;;;;;;;;;;;;;;8.78;94.52;100345.16;5039615;28;19924;-78
2023/12/31 00:22:13;;;;;;;;;;;;;;;8.87;94.50;100337.19;5045524;28;19921;-78
2023/12/31 00:24:38;;;;;;;;;;;;;;;8.83;94.64;100331.16;5063174;28;19924;-79
2023/12/31 00:27:04;;;;;;;;;;;;;;;8.71;94.23;100318.22;5029517;28;20307;-77
2023/12/31 00:29:29;;;;;;;;;;;;;;;8.92;92.66;100311.88;5062062;28;19932;-73
2023/12/31 00:31:55;;;;;;;;;;;;;;;8.84;93.01;100313.72;5038918;28;20414;-72
2023/12/31 00:34:20;;;;;;;;;;;;;;;8.60;94.39;100315.72;5039676;28;20361;-70
2023/12/31 00:36:45;;;;;;;;;;;;;;;8.73;93.08;100313.84;5066764;28;19927;-71
2023/12/31 00:39:11;;;;;;;;;;;;;;;8.67;93.17;100303.47;5056389;28;19953;-70
2023/12/31 00:41:37;;;;;;;;;;;;;;;8.88;92.42;100320.63;5062618;28;20110;-69
2023/12/31 00:44:02;;;;;;;;;;;;;;;8.79;91.60;100278.94;5054303;28;19927;-71
2023/12/31 00:46:30;;;;;;;;;;;;;;;8.74;91.68;100278.16;5066276;28;19924;-68
2023/12/31 00:48:55;;;;;;;;;;;;;;;8.96;90.09;100274.34;5031132;28;19928;-70
2023/12/31 00:51:21;;;;;;;;;;;;;;;8.88;90.49;100271.00;5047392;28;20391;-79
2023/12/31 00:53:46;;;;;;;;;;;;;;;8.93;89.70;100265.69;5047951;28;20356;-78
2023/12/31 00:56:14;;;;;;;;;;;;;;;8.87;90.14;100266.63;5043457;28;19952;-78
2023/12/31 00:58:40;;;;;;;;;;;;;;;8.90;89.93;100256.13;5044817;28;19924;-77
2023/12/31 01:01:05;;;;;;;;;;;;;;;8.86;90.14;100248.38;5049118;28;20445;-78
2023/12/31 01:03:30;;;;;;;;;;;;;;;8.88;89.78;100246.59;5034914;28;20430;-73
2023/12/31 01:06:03;;;;;;;;;;;;;;;8.84;89.72;100254.47;5044345;28;19974;-76
2023/12/31 01:08:29;;;;;;;;;;;;;;;8.87;89.66;100261.41;5043398;28;20326;-77
2023/12/31 01:10:54;;;;;;;;;;;;;;;8.79;90.14;100242.34;5044279;28;19932;-77
2023/12/31 01:13:19;;;;;;;;;;;;;;;8.66;91.20;100244.28;5046276;28;19921;-75
2023/12/31 01:15:45;;;;;;;;;;;;;;;8.64;91.20;100246.06;5043349;28;19924;-76
2023/12/31 01:18:11;;;;;;;;;;;;;;;8.56;91.59;100230.50;5036117;28;20286;-78
2023/12/31 01:20:36;;;;;;;;;;;;;;;8.59;90.34;100240.91;5047070;28;20375;-76
2023/12/31 01:23:02;;;;;;;;;;;;;;;8.78;89.10;100238.91;5035592;28;19928;-77
2023/12/31 01:25:27;;;;;;;;;;;;;;;8.72;89.38;100215.47;5036446;28;19920;-79
2023/12/31 01:27:55;;;;;;;;;;;;;;;8.79;89.00;100195.34;5032709;28;19929;-76
2023/12/31 01:30:20;;;;;;;;;;;;;;;8.63;89.84;100200.81;5026427;28;19929;-78
2023/12/31 01:32:46;;;;;;;;;;;;;;;8.67;89.68;100194.63;5006382;28;19928;-78
2023/12/31 01:35:12;;;;;;;;;;;;;;;8.64;89.66;100199.03;5021136;28;19947;-78
2023/12/31 01:37:37;;;;;;;;;;;;;;;8.57;89.69;100206.09;5031938;28;20288;-75
2023/12/31 01:40:02;;;;;;;;;;;;;;;8.63;88.67;100198.19;5028879;28;20277;-78
2023/12/31 01:42:29;;;;;;;;;;;;;;;8.56;89.56;100193.94;5041463;28;19948;-77
2023/12/31 01:44:54;;;;;;;;;;;;;;;8.57;89.60;100184.34;5022431;28;19925;-78
2023/12/31 01:47:20;;;;;;;;;;;;;;;8.54;89.73;100187.84;5021993;28;20333;-77
2023/12/31 01:49:45;;;;;;;;;;;;;;;8.52;89.51;100176.59;5026083;28;19929;-80
2023/12/31 01:52:11;;;;;;;;;;;;;;;8.58;88.36;100171.25;5028225;28;19975;-78
2023/12/31 01:54:36;;;;;;;;;;;;;;;8.49;88.89;100163.53;5031537;28;19979;-78
2023/12/31 01:57:02;;;;;;;;;;;;;;;8.58;88.87;100162.56;5040658;28;20530;-79
2023/12/31 01:59:27;;;;;;;;;;;;;;;8.59;88.11;100157.31;5012071;28;19992;-78
2023/12/31 02:01:54;;;;;;;;;;;;;;;8.51;88.49;100153.09;5022137;28;19920;-71
2023/12/31 02:04:20;;;;;;;;;;;;;;;8.49;88.41;100153.97;5028702;28;20001;-72
2023/12/31 02:06:46;;;;;;;;;;;;;;;8.47;88.60;100149.66;5044942;28;20004;-71
2023/12/31 02:09:11;;;;;;;;;;;;;;;8.46;88.31;100146.19;5023963;28;20016;-71
2023/12/31 02:11:37;;;;;;;;;;;;;;;8.41;88.90;100137.53;5021199;28;19928;-71
2023/12/31 02:14:03;;;;;;;;;;;;;;;8.38;89.32;100136.72;5022714;28;19921;-69
2023/12/31 02:16:28;;;;;;;;;;;;;;;8.45;88.67;100133.16;5051773;28;19950;-69
2023/12/31 02:18:53;;;;;;;;;;;;;;;8.45;88.33;100130.56;5016729;28;19917;-69
2023/12/31 02:21:19;;;;;;;;;;;;;;;8.48;87.86;100127.88;5020459;28;19920;-70
2023/12/31 02:23:45;;;;;;;;;;;;;;;8.58;88.06;100124.25;5046630;28;20383;-69
2023/12/31 02:26:13;;;;;;;;;;;;;;;8.52;87.65;100107.81;5031960;28;19948;-72
2023/12/31 02:28:39;;;;;;;;;;;;;;;8.40;88.96;100103.59;5043329;28;20355;-72
2023/12/31 02:31:04;;;;;;;;;;;;;;;8.39;88.57;100109.69;5045142;28;20015;-72
2023/12/31 02:33:30;;;;;;;;;;;;;;;8.43;88.10;100096.59;5031011;28;19981;-70
2023/12/31 02:35:55;;;;;;;;;;;;;;;8.24;89.91;100093.38;5042926;28;20381;-71
2023/12/31 02:38:23;;;;;;;;;;;;;;;8.29;89.31;100091.56;5027285;28;19916;-78
2023/12/31 02:40:48;;;;;;;;;;;;;;;8.27;89.43;100079.41;5039947;28;19924;-71
2023/12/31 02:43:14;;;;;;;;;;;;;;;8.29;89.73;100073.31;5038947;28;20308;-71
2023/12/31 02:45:39;;;;;;;;;;;;;;;8.41;89.46;100066.16;5009189;28;20032;-71
2023/12/31 02:48:05;;;;;;;;;;;;;;;8.31;89.22;100053.25;5040434;28;20607;-69
2023/12/31 02:50:31;;;;;;;;;;;;;;;8.43;88.88;100041.78;5031204;28;20452;-69
2023/12/31 02:52:56;;;;;;;;;;;;;;;8.39;89.25;100045.31;5020545;28;19920;-70
2023/12/31 02:55:22;;;;;;;;;;;;;;;8.41;89.23;100040.06;5021575;28;20388;-70
2023/12/31 02:57:47;;;;;;;;;;;;;;;8.37;89.37;100025.34;5024462;28;20027;-68
2023/12/31 03:00:13;;;;;;;;;;;;;;;8.29;89.76;100023.69;5014470;28;19921;-69
2023/12/31 03:02:40;;;;;;;;;;;;;;;8.23;90.98;100018.59;5021005;28;19939;-70
2023/12/31 03:05:07;;;;;;;;;;;;;;;8.25;89.63;100021.16;5036408;28;20277;-68
2023/12/31 03:07:33;;;;;;;;;;;;;;;8.29;89.91;100008.03;5048144;28;20856;-70
2023/12/31 03:09:58;;;;;;;;;;;;;;;8.33;89.61;100014.06;5022036;28;20008;-68
2023/12/31 03:12:23;;;;;;;;;;;;;;;8.33;89.93;100008.84;5019564;28;19932;-68
2023/12/31 03:14:48;;;;;;;;;;;;;;;8.48;88.87;100011.25;5028518;28;19921;-69
2023/12/31 03:17:14;;;;;;;;;;;;;;;8.32;89.62;100013.22;5022541;28;19937;-71
2023/12/31 03:19:41;;;;;;;;;;;;;;;8.41;89.56;100006.13;5028781;28;19924;-69
2023/12/31 03:22:07;;;;;;;;;;;;;;;8.23;90.64;99989.00;5024934;28;19928;-69
2023/12/31 03:24:32;;;;;;;;;;;;;;;8.29;89.93;99981.09;5019551;28;20292;-69
2023/12/31 03:26:58;;;;;;;;;;;;;;;8.22;90.25;99969.88;5040514;28;20623;-69
2023/12/31 03:29:23;;;;;;;;;;;;;;;8.25;89.97;99975.03;5037394;28;19935;-69
2023/12/31 03:31:48;;;;;;;;;;;;;;;8.25;90.58;99964.59;5029599;28;19999;-78
2023/12/31 03:34:14;;;;;;;;;;;;;;;8.10;90.94;99951.78;5060941;28;19932;-76
2023/12/31 03:36:39;;;;;;;;;;;;;;;8.28;90.39;99937.59;5047124;28;19921;-77
2023/12/31 03:39:05;;;;;;;;;;;;;;;8.22;89.66;99943.78;5028328;28;19931;-74
2023/12/31 03:41:30;;;;;;;;;;;;;;;8.19;89.84;99928.16;5029071;28;19931;-74
2023/12/31 03:43:56;;;;;;;;;;;;;;;8.10;90.24;99920.47;5047097;28;20369;-76
2023/12/31 03:46:21;;;;;;;;;;;;;;;8.17;89.81;99913.41;5028906;28;19920;-76
2023/12/31 03:48:48;;;;;;;;;;;;;;;8.20;90.12;99902.91;5033667;28;19921;-75
2023/12/31 03:51:14;;;;;;;;;;;;;;;8.18;90.09;99889.06;5040721;28;19929;-74
2023/12/31 03:53:40;;;;;;;;;;;;;;;8.10;90.17;99886.56;5022427;28;20442;-76
2023/12/31 03:56:08;;;;;;;;;;;;;;;7.89;91.11;99879.97;5043058;28;19916;-76
2023/12/31 03:58:33;;;;;;;;;;;;;;;7.87;91.71;99869.53;5052292;28;19963;-76
2023/12/31 04:00:59;;;;;;;;;;;;;;;7.96;91.49;99878.97;5032709;28;19970;-77
2023/12/31 04:03:24;;;;;;;;;;;;;;;8.12;90.45;99863.91;5011295;28;19936;-69
2023/12/31 04:05:49;;;;;;;;;;;;;;;7.90;91.80;99863.41;5047044;28;20254;-69
2023/12/31 04:08:15;;;;;;;;;;;;;;;7.86;91.90;99862.59;5016537;28;19944;-69
2023/12/31 04:10:40;;;;;;;;;;;;;;;7.96;91.31;99853.75;5025766;28;20028;-69
2023/12/31 04:13:05;;;;;;;;;;;;;;;7.97;91.30;99849.38;5030185;28;19933;-70
2023/12/31 04:15:31;;;;;;;;;;;;;;;7.96;91.53;99838.09;5023310;28;19953;-69
2023/12/31 04:17:56;;;;;;;;;;;;;;;8.09;90.54;99832.66;5025878;28;20472;-70
2023/12/31 04:20:22;;;;;;;;;;;;;;;7.91;92.07;99834.69;5033891;28;20004;-70
2023/12/31 04:22:47;;;;;;;;;;;;;;;8.03;90.74;99825.81;5059584;28;19921;-69
2023/12/31 04:25:12;;;;;;;;;;;;;;;8.07;90.78;99824.84;5055133;28;19928;-69
2023/12/31 04:27:40;;;;;;;;;;;;;;;8.14;90.64;99823.84;5054797;28;20349;-70
2023/12/31 04:30:06;;;;;;;;;;;;;;;8.18;90.55;99815.97;5046358;28;19936;-69
2023/12/31 04:32:31;;;;;;;;;;;;;;;8.29;90.13;99814.88;5063252;28;19929;-70
2023/12/31 04:34:57;;;;;;;;;;;;;;;8.09;90.71;99793.53;5042802;28;19920;-72
2023/12/31 04:37:22;;;;;;;;;;;;;;;8.10;90.59;99795.22;5064035;28;19924;-69
2023/12/31 04:39:48;;;;;;;;;;;;;;;8.23;91.00;99799.34;5066794;28;19916;-78
2023/12/31 04:42:13;;;;;;;;;;;;;;;8.12;90.73;99780.41;5037900;28;19974;-77
2023/12/31 04:44:40;;;;;;;;;;;;;;;8.20;90.81;99778.50;5059270;28;19921;-77
2023/12/31 04:47:07;;;;;;;;;;;;;;;8.07;91.35;99777.88;5059401;28;20011;-77
2023/12/31 04:49:32;;;;;;;;;;;;;;;8.15;91.05;99780.34;5045995;28;19932;-78
2023/12/31 04:51:58;;;;;;;;;;;;;;;8.26;90.91;99787.97;5069846;28;19916;-77
2023/12/31 04:54:23;;;;;;;;;;;;;;;8.22;90.84;99765.44;5052746;28;19935;-76
2023/12/31 04:56:48;;;;;;;;;;;;;;;8.33;90.34;99768.69;5050790;28;20010;-77
2023/12/31 04:59:14;;;;;;;;;;;;;;;8.19;91.29;99750.72;5050918;28;19943;-76
2023/12/31 05:01:39;;;;;;;;;;;;;;;8.16;91.35;99750.78;5049248;28;20031;-77
2023/12/31 05:04:05;;;;;;;;;;;;;;;8.23;91.28;99744.53;5069407;28;20374;-78
2023/12/31 05:06:30;;;;;;;;;;;;;;;8.24;90.76;99737.56;5051400;28;20003;-77
2023/12/31 05:08:55;;;;;;;;;;;;;;;8.40;89.77;99738.09;5047622;28;19924;-77
2023/12/31 05:11:24;;;;;;;;;;;;;;;8.41;89.82;99739.84;5051366;28;19970;-77
2023/12/31 05:13:49;;;;;;;;;;;;;;;8.33;90.10;99719.97;5056577;28;19943;-77
2023/12/31 05:16:17;;;;;;;;;;;;;;;8.47;89.80;99734.50;5035288;28;19928;-77
2023/12/31 05:18:43;;;;;;;;;;;;;;;8.51;89.34;99722.28;5057884;28;19916;-78
2023/12/31 05:21:09;;;;;;;;;;;;;;;8.54;89.30;99720.44;5063106;28;19916;-78
2023/12/31 05:23:35;;;;;;;;;;;;;;;8.43;89.78;99717.16;5042339;28;19952;-77
2023/12/31 05:26:00;;;;;;;;;;;;;;;8.52;89.87;99710.91;5040260;28;20333;-76
2023/12/31 05:28:26;;;;;;;;;;;;;;;8.61;89.20;99695.06;5045609;28;19936;-74
2023/12/31 05:30:51;;;;;;;;;;;;;;;8.60;88.99;99702.00;5030526;28;19925;-78
2023/12/31 05:33:16;;;;;;;;;;;;;;;8.56;90.07;99702.13;5050445;28;19920;-74
2023/12/31 05:35:42;;;;;;;;;;;;;;;8.41;90.36;99675.41;5039135;28;19996;-78
2023/12/31 05:38:07;;;;;;;;;;;;;;;8.53;89.86;99681.31;5053060;28;20214;-77
2023/12/31 05:40:32;;;;;;;;;;;;;;;8.57;89.53;99681.19;5043151;28;19932;-77
2023/12/31 05:42:59;;;;;;;;;;;;;;;8.57;89.22;99668.13;5045514;28;19928;-78
2023/12/31 05:45:24;;;;;;;;;;;;;;;8.68;88.83;99660.06;5048095;28;19939;-76
2023/12/31 05:47:50;;;;;;;;;;;;;;;8.50;90.12;99666.56;5048280;28;20027;-78
2023/12/31 05:50:15;;;;;;;;;;;;;;;8.50;90.33;99658.72;5050999;28;20341;-78
2023/12/31 05:52:44;;;;;;;;;;;;;;;8.59;89.60;99660.28;5068704;28;20010;-76
2023/12/31 05:55:09;;;;;;;;;;;;;;;8.43;90.44;99654.50;5070176;28;20474;-74
2023/12/31 05:57:35;;;;;;;;;;;;;;;8.59;89.35;99645.47;5051218;28;20047;-74
2023/12/31 06:00:00;;;;;;;;;;;;;;;8.42;90.49;99645.81;5068344;28;19921;-78
2023/12/31 06:02:26;;;;;;;;;;;;;;;8.41;90.55;99640.63;5047727;28;19921;-76
2023/12/31 06:04:51;;;;;;;;;;;;;;;8.56;89.72;99640.34;5053143;28;19989;-77
2023/12/31 06:07:17;;;;;;;;;;;;;;;8.57;89.78;99647.25;5056916;28;19974;-75
2023/12/31 06:09:42;;;;;;;;;;;;;;;8.49;90.48;99651.78;5049721;28;19921;-78
2023/12/31 06:12:07;;;;;;;;;;;;;;;8.56;89.45;99644.69;5050171;28;19920;-78
2023/12/31 06:14:33;;;;;;;;;;;;;;;8.53;89.89;99644.75;5053447;28;20014;-77
2023/12/31 06:16:58;;;;;;;;;;;;;;;8.53;90.21;99635.16;5049846;28;19925;-77
2023/12/31 06:19:23;;;;;;;;;;;;;;;8.55;89.49;99625.53;5044117;28;19925;-77
2023/12/31 06:21:49;;;;;;;;;;;;;;;8.51;90.03;99617.81;5051528;28;19935;-77
2023/12/31 06:24:14;;;;;;;;;;;;;;;8.57;89.98;99621.13;5052568;28;19935;-78
2023/12/31 06:26:39;;;;;;;;;;;;;;;8.52;90.28;99630.84;5052489;28;19929;-74
2023/12/31 06:29:05;;;;;;;;;;;;;;;8.59;89.99;99621.97;5046947;28;20347;-76
2023/12/31 06:31:30;;;;;;;;;;;;;;;8.51;90.18;99616.06;5035450;28;20270;-78
2023/12/31 06:33:55;;;;;;;;;;;;;;;8.42;90.56;99616.22;5039465;28;19921;-76
2023/12/31 06:36:21;;;;;;;;;;;;;;;8.41;91.22;99614.53;5059063;28;20384;-77
2023/12/31 06:38:49;;;;;;;;;;;;;;;8.55;90.19;99604.66;5038986;28;19925;-78
2023/12/31 06:41:14;;;;;;;;;;;;;;;8.51;90.44;99599.56;5030399;28;19929;-76
2023/12/31 06:43:41;;;;;;;;;;;;;;;8.48;90.63;99601.31;5042293;28;19920;-71
2023/12/31 06:46:06;;;;;;;;;;;;;;;8.41;90.60;99583.19;5043450;28;19947;-71
2023/12/31 06:48:31;;;;;;;;;;;;;;;8.44;90.72;99588.34;5059959;28;19920;-70
2023/12/31 06:50:57;;;;;;;;;;;;;;;8.50;90.08;99572.56;5062541;28;19929;-68
2023/12/31 06:53:22;;;;;;;;;;;;;;;8.53;90.09;99571.63;5085158;28;20405;-71
2023/12/31 06:55:48;;;;;;;;;;;;;;;8.48;90.80;99563.94;5059392;28;20364;-76
2023/12/31 06:58:14;;;;;;;;;;;;;;;8.52;90.03;99555.13;5067334;28;19917;-77
2023/12/31 07:00:39;;;;;;;;;;;;;;;8.48;90.72;99558.69;5063857;28;20295;-77
2023/12/31 07:03:06;;;;;;;;;;;;;;;8.37;91.20;99555.44;5051984;28;19924;-76
2023/12/31 07:05:31;;;;;;;;;;;;;;;8.43;91.26;99548.34;5039006;28;19929;-75
2023/12/31 07:07:56;;;;;;;;;;;;;;;8.36;91.51;99541.56;5039310;28;19924;-74
2023/12/31 07:10:22;;;;;;;;;;;;;;;8.46;91.50;99542.19;5045193;28;20572;-78
2023/12/31 07:12:47;;;;;;;;;;;;;;;8.41;91.77;99536.22;5040397;28;19931;-76
2023/12/31 07:15:13;;;;;;;;;;;;;;;8.41;91.49;99533.59;5048566;28;19924;-74
2023/12/31 07:17:38;;;;;;;;;;;;;;;8.47;91.48;99526.50;5058558;28;20003;-78
2023/12/31 07:20:04;;;;;;;;;;;;;;;8.49;91.50;99527.34;5038592;28;19939;-75
2023/12/31 07:22:32;;;;;;;;;;;;;;;8.46;91.56;99526.53;5038140;28;19928;-76
2023/12/31 07:24:58;;;;;;;;;;;;;;;8.45;91.73;99511.78;5061910;28;21700;-76
2023/12/31 07:27:26;;;;;;;;;;;;;;;8.39;92.50;99517.09;5039621;28;19925;-77
2023/12/31 07:29:51;;;;;;;;;;;;;;;8.54;91.75;99505.47;5046031;28;19921;-76
2023/12/31 07:32:16;;;;;;;;;;;;;;;8.51;91.89;99508.16;5046367;28;20137;-77
2023/12/31 07:34:42;;;;;;;;;;;;;;;8.52;92.07;99512.47;5051409;28;20353;-77
2023/12/31 07:37:08;;;;;;;;;;;;;;;8.52;92.29;99508.13;5052736;28;19928;-73
2023/12/31 07:39:34;;;;;;;;;;;;;;;8.40;92.31;99495.34;5066583;28;19916;-77
2023/12/31 07:41:59;;;;;;;;;;;;;;;8.43;92.75;99497.88;5044357;28;19932;-76
2023/12/31 07:44:24;;;;;;;;;;;;;;;8.46;92.83;99480.41;5047875;28;20015;-75
2023/12/31 07:46:50;;;;;;;;;;;;;;;8.58;91.92;99489.69;5079347;28;19943;-76
2023/12/31 07:49:15;;;;;;;;;;;;;;;8.53;92.76;99490.69;5049118;28;19921;-74
2023/12/31 07:51:41;;;;;;;;;;;;;;;8.69;91.80;99489.41;5075575;28;20134;-76
2023/12/31 07:54:25;;;;;;;;;;;;;;;8.84;90.46;99478.56;5055320;28;19920;-77
2023/12/31 08:01:47;;;;;;;;;;;;;;;8.83;91.24;99460.31;5134715;22;20327;-77
2023/12/31 08:04:13;;;;;;;;;;;;;;;8.86;90.74;99465.47;5088676;22;19932;-77
2023/12/31 08:09:13;;;;;;;;;;;;;;;9.08;90.03;99472.72;5229141;22;20264;-78
2023/12/31 08:11:39;;;;;;;;;;;;;;;9.11;90.06;99468.28;5506343;22;19928;-72
2023/12/31 08:14:04;;;;;;;;;;;;;;;9.05;90.80;99478.03;5289439;22;19924;-75
2023/12/31 08:19:33;;;;;;;;;;;;;;;9.20;89.80;99464.53;5198831;22;19985;-73
2023/12/31 08:22:27;;;;;;;;;;;;;;;9.29;89.38;99455.59;5268065;22;20329;-76
2023/12/31 08:27:33;;;;;;;;;;;;;;;9.18;90.93;99469.81;5364096;22;21038;-76
2023/12/31 08:30:02;;;;;;;;;;;;;;;9.10;91.99;99453.47;5396501;22;20306;-78
2023/12/31 08:32:28;;;;;;;;;;;;;;;8.98;93.22;99459.91;5056481;28;22048;-72
2023/12/31 08:34:54;;;;;;;;;;;;;;;9.11;92.64;99456.97;5064641;28;20302;-78
2023/12/31 08:37:19;;;;;;;;;;;;;;;9.16;92.92;99481.22;5067951;28;19920;-72
2023/12/31 08:39:44;;;;;;;;;;;;;;;9.22;92.58;99456.66;5075468;28;19920;-70
2023/12/31 08:42:10;;;;;;;;;;;;;;;9.34;92.13;99453.69;5067979;28;19924;-77
2023/12/31 08:44:36;;;;;;;;;;;;;;;9.31;93.52;99456.38;5055257;28;21305;-77
2023/12/31 08:47:01;;;;;;;;;;;;;;;9.46;92.28;99462.94;5050683;28;19956;-75
2023/12/31 09:03:10;;;;;;;;;;;;;;;9.58;91.93;99464.31;5278327;22;19947;-77
2023/12/31 09:08:39;;;;;;;;;;;;;;;9.53;91.55;99444.41;5084688;28;19962;-69
2023/12/31 09:11:04;;;;;;;;;;;;;;;9.42;91.91;99449.09;5071408;28;20287;-79
2023/12/31 09:13:30;;;;;;;;;;;;;;;9.38;92.38;99462.28;5082956;28;19935;-71
2023/12/31 09:15:55;;;;;;;;;;;;;;;9.47;91.30;99454.19;5067620;28;20287;-72
2023/12/31 09:18:21;;;;;;;;;;;;;;;9.34;92.96;99465.00;5075846;28;20356;-71
2023/12/31 09:20:46;;;;;;;;;;;;;;;9.49;91.45;99479.38;5074563;28;19927;-74
2023/12/31 09:23:12;;;;;;;;;;;;;;;9.19;93.15;99476.75;5077296;28;20352;-71
2023/12/31 09:25:37;;;;;;;;;;;;;;;9.44;92.43;99470.84;5062905;28;20545;-71
2023/12/31 09:28:03;;;;;;;;;;;;;;;9.45;91.44;99469.94;5073272;28;19921;-74
2023/12/31 09:30:28;;;;;;;;;;;;;;;9.29;92.87;99487.78;5054276;28;19931;-74
2023/12/31 09:32:53;;;;;;;;;;;;;;;9.28;92.99;99482.63;5047607;28;19971;-70
2023/12/31 09:35:19;;;;;;;;;;;;;;;9.25;94.07;99490.53;5063651;28;19950;-70
2023/12/31 09:37:44;;;;;;;;;;;;;;;9.44;94.12;99488.25;5091133;28;20027;-72
2023/12/31 09:40:10;;;;;;;;;;;;;;;9.21;95.60;99488.91;5072739;28;19979;-70
2023/12/31 09:42:55;;;;;;;;;;;;;;;9.16;96.43;99499.50;5068907;28;19927;-70
2023/12/31 09:45:22;;;;;;;;;;;;;;;9.13;96.90;99494.34;5103135;28;19916;-68
2023/12/31 09:47:49;;;;;;;;;;;;;;;9.10;97.09;99492.69;5088817;28;20386;-69
2023/12/31 09:50:15;;;;;;;;;;;;;;;9.18;97.31;99508.16;5073421;28;19954;-71
2023/12/31 09:52:41;;;;;;;;;;;;;;;9.19;97.19;99486.34;5078422;28;19928;-68
2023/12/31 09:55:07;;;;;;;;;;;;;;;9.09;97.43;99506.63;5062780;28;19926;-70
2023/12/31 09:57:35;;;;;;;;;;;;;;;9.27;96.92;99491.38;5061260;28;20231;-72
2023/12/31 10:00:04;;;;;;;;;;;;;;;9.24;96.55;99513.22;5065355;28;19928;-71
2023/12/31 10:02:31;;;;;;;;;;;;;;;9.04;97.46;99511.16;5058246;28;20319;-78
2023/12/31 10:04:57;;;;;;;;;;;;;;;8.97;98.48;99507.84;5088049;28;20314;-77
2023/12/31 10:07:23;;;;;;;;;;;;;;;8.91;98.55;99509.78;5070497;28;19931;-78
2023/12/31 10:09:54;;;;;;;;;;;;;;;9.02;97.22;99507.69;5085275;28;19924;-79
2023/12/31 10:12:20;;;;;;;;;;;;;;;8.86;97.87;99502.03;5074075;28;19939;-71
2023/12/31 10:14:45;;;;;;;;;;;;;;;8.97;97.13;99500.00;5068301;28;19921;-70
2023/12/31 10:17:15;;;;;;;;;;;;;;;8.85;97.55;99484.66;5078691;28;19919;-69
2023/12/31 10:19:40;;;;;;;;;;;;;;;9.01;95.92;99490.34;5071058;28;19924;-70
2023/12/31 10:22:09;;;;;;;;;;;;;;;8.94;96.37;99492.25;5083824;28;19927;-69
2023/12/31 10:24:34;;;;;;;;;;;;;;;9.15;94.45;99487.31;5077423;28;19963;-79
2023/12/31 10:27:04;;;;;;;;;;;;;;;9.19;93.18;99504.63;5086597;28;20367;-79
2023/12/31 10:29:31;;;;;;;;;;;;;;;8.96;94.20;99502.66;5081974;28;19947;-76
2023/12/31 10:31:57;;;;;;;;;;;;;;;8.83;95.95;99503.00;5082969;28;19965;-78
2023/12/31 10:34:22;;;;;;;;;;;;;;;8.75;97.56;99511.91;5066971;28;20014;-78
2023/12/31 10:36:47;;;;;;;;;;;;;;;8.44;99.13;99497.84;5064932;28;19923;-78
2023/12/31 10:39:29;;;;;;;;;;;;;;;8.50;100.00;99509.91;5080425;28;19935;-79
2023/12/31 10:42:05;;;;;;;;;;;;;;;8.20;100.00;99506.25;5062726;28;20471;-74
2023/12/31 10:44:34;;;;;;;;;;;;;;;8.32;100.00;99508.59;5078626;28;20303;-76
2023/12/31 10:47:05;;;;;;;;;;;;;;;8.06;100.00;99510.03;5080287;28;19928;-70
2023/12/31 10:49:34;;;;;;;;;;;;;;;7.96;100.00;99495.50;5076686;28;19924;-70
2023/12/31 10:52:02;;;;;;;;;;;;;;;8.11;100.00;99499.50;5054925;28;19931;-69
2023/12/31 10:54:41;;;;;;;;;;;;;;;7.96;100.00;99488.53;5079141;28;19916;-70
2023/12/31 10:57:06;;;;;;;;;;;;;;;7.87;100.00;99500.91;5078981;28;19927;-69
2023/12/31 10:59:36;;;;;;;;;;;;;;;7.80;100.00;99508.88;5080394;28;19975;-69
2023/12/31 11:02:03;;;;;;;;;;;;;;;7.73;100.00;99509.03;5078628;28;19924;-71
2023/12/31 11:04:30;;;;;;;;;;;;;;;7.54;100.00;99517.25;5062366;28;19932;-71
2023/12/31 11:06:55;;;;;;;;;;;;;;;7.57;100.00;99511.09;5077491;28;19920;-71
2023/12/31 11:09:21;;;;;;;;;;;;;;;7.60;100.00;99509.28;5060028;28;19935;-70
2023/12/31 11:11:47;;;;;;;;;;;;;;;7.73;100.00;99503.81;5083799;28;19920;-70
2023/12/31 11:14:14;;;;;;;;;;;;;;;7.92;100.00;99505.13;5080410;28;19928;-71
2023/12/31 11:16:52;;;;;;;;;;;;;;;8.03;100.00;99504.91;5092030;28;20287;-71
2023/12/31 11:19:20;;;;;;;;;;;;;;;8.18;100.00;99495.00;5074708;28;19916;-70
2023/12/31 11:22:09;;;;;;;;;;;;;;;8.20;100.00;99494.03;5085120;28;19920;-72
2023/12/31 11:24:35;;;;;;;;;;;;;;;8.29;100.00;99504.28;5082889;28;19916;-69
2023/12/31 11:27:26;;;;;;;;;;;;;;;8.19;100.00;99505.41;5048317;28;19931;-70
2023/12/31 11:29:52;;;;;;;;;;;;;;;8.18;100.00;99501.06;5102431;28;19924;-71
2023/12/31 11:32:19;;;;;;;;;;;;;;;8.29;100.00;99511.28;5065762;28;20014;-71
2023/12/31 11:34:49;;;;;;;;;;;;;;;8.69;100.00;99491.16;5076950;28;19923;-70
2023/12/31 11:37:15;;;;;;;;;;;;;;;8.98;100.00;99495.66;5077550;28;19966;-71
2023/12/31 11:39:45;;;;;;;;;;;;;;;9.11;98.99;99497.03;5086986;28;19920;-71
2023/12/31 11:42:11;;;;;;;;;;;;;;;9.32;97.74;99495.56;5082282;28;19955;-71
2023/12/31 11:44:37;;;;;;;;;;;;;;;9.47;97.66;99503.88;5087856;28;19959;-81
2023/12/31 11:47:03;;;;;;;;;;;;;;;9.84;95.02;99502.78;5066372;28;19920;-70
2023/12/31 11:49:28;;;;;;;;;;;;;;;10.01;94.87;99497.91;5086927;28;19927;-80
2023/12/31 11:51:58;;;;;;;;;;;;;;;9.83;92.71;99509.78;5063385;28;20306;-79
2023/12/31 11:54:23;;;;;;;;;;;;;;;9.63;93.93;99491.22;5102237;28;19990;-69
2023/12/31 11:56:51;;;;;;;;;;;;;;;9.46;94.14;99504.78;5082791;28;20512;-69
2023/12/31 11:59:17;;;;;;;;;;;;;;;9.26;94.59;99502.72;5077035;28;20300;-74
2023/12/31 12:01:45;;;;;;;;;;;;;;;9.16;96.67;99505.56;5083699;28;19935;-81
2023/12/31 12:04:11;;;;;;;;;;;;;;;9.14;96.68;99494.31;5090032;28;20301;-77
2023/12/31 12:06:40;;;;;;;;;;;;;;;9.13;95.68;99515.28;5080701;28;20001;-69
2023/12/31 12:09:05;;;;;;;;;;;;;;;9.27;93.22;99513.13;5084171;28;20323;-72
2023/12/31 12:11:31;;;;;;;;;;;;;;;9.33;93.92;99512.94;5066279;28;19925;-70
2023/12/31 12:13:56;;;;;;;;;;;;;;;10.18;91.27;99506.97;5087044;28;20343;-71
2023/12/31 12:16:21;;;;;;;;;;;;;;;11.06;86.25;99511.97;5076907;28;20003;-72
2023/12/31 12:18:59;;;;;;;;;;;;;;;12.72;81.05;99515.28;5079144;28;19924;-71
2023/12/31 12:21:25;;;;;;;;;;;;;;;14.08;76.05;99519.84;5064000;28;19920;-72
2023/12/31 12:23:51;;;;;;;;;;;;;;;14.04;75.01;99515.63;5075509;28;19926;-70
2023/12/31 12:26:16;;;;;;;;;;;;;;;13.66;75.88;99521.75;5074327;28;20064;-71
2023/12/31 12:28:42;;;;;;;;;;;;;;;14.17;72.80;99519.38;5072003;28;19935;-70
2023/12/31 12:31:07;;;;;;;;;;;;;;;14.07;72.37;99512.00;5081882;28;19928;-71
2023/12/31 12:33:33;;;;;;;;;;;;;;;13.12;76.05;99518.84;5071949;28;19923;-70
2023/12/31 12:35:58;;;;;;;;;;;;;;;12.10;75.58;99512.50;5084548;28;20087;-71
2023/12/31 12:38:25;;;;;;;;;;;;;;;11.59;82.04;99511.81;5081395;28;19920;-71
2023/12/31 12:40:58;;;;;;;;;;;;;;;11.40;82.87;99521.25;5073032;28;19970;-71
2023/12/31 12:43:28;;;;;;;;;;;;;;;11.97;79.82;99532.28;5085406;28;19990;-71
2023/12/31 12:46:06;;;;;;;;;;;;;;;12.97;79.39;99519.50;5061352;28;19912;-70
2023/12/31 12:48:38;;;;;;;;;;;;;;;13.74;73.53;99523.19;5071154;28;19924;-70
2023/12/31 12:51:03;;;;;;;;;;;;;;;14.01;72.48;99529.78;5081252;28;19923;-72
2023/12/31 12:53:29;;;;;;;;;;;;;;;14.17;72.05;99529.06;5068514;28;20421;-71
2023/12/31 12:55:54;;;;;;;;;;;;;;;14.77;72.67;99536.72;5076774;28;20174;-71
2023/12/31 12:58:19;;;;;;;;;;;;;;;15.01;69.06;99541.69;5088935;28;19916;-69
2023/12/31 13:00:45;;;;;;;;;;;;;;;14.78;67.90;99541.06;5069971;28;19993;-71
2023/12/31 13:03:10;;;;;;;;;;;;;;;13.88;67.43;99543.59;5048025;28;20015;-71
2023/12/31 13:05:35;;;;;;;;;;;;;;;12.54;72.30;99555.47;5075518;28;20035;-71
2023/12/31 13:08:03;;;;;;;;;;;;;;;11.69;75.58;99553.44;5073449;28;20448;-69
2023/12/31 13:10:28;;;;;;;;;;;;;;;10.96;77.54;99558.63;5073426;28;19932;-70
2023/12/31 13:12:54;;;;;;;;;;;;;;;10.43;80.85;99558.59;5066090;28;20245;-69
2023/12/31 13:15:19;;;;;;;;;;;;;;;10.00;77.87;99553.75;5088107;28;19924;-69
2023/12/31 13:17:45;;;;;;;;;;;;;;;9.75;81.77;99550.16;5082449;28;20336;-71